Time;durP1;ratioP1;P1;durP2;ratioP2;P2;SDS_P1;SDS_P2;PMS_P1;PMS_P2;Temp;Humidity;BMP_temperature;BMP_pressure;BME280_temperature;BME280_humidity;BME280_pressure;Samples;Min_cycle;Max_cycle;Signal;HPM_P1;HPM_P2
2023/12/01 00:01:09;;;;;;;29.60;11.18;;;;;;;-1.74;100.00;99856.22;6064968;28;20037;-70
2023/12/01 00:04:05;;;;;;;44.57;13.70;;;;;;;-1.72;100.00;99852.59;6067606;28;20500;-70
2023/12/01 00:07:01;;;;;;;34.65;12.07;;;;;;;-1.83;100.00;99860.19;6061160;28;20441;-70
2023/12/01 00:09:56;;;;;;;37.67;11.70;;;;;;;-1.77;100.00;99864.19;6061154;28;20113;-70
2023/12/01 00:12:51;;;;;;;40.67;13.07;;;;;;;-1.65;100.00;99869.50;6061026;28;20046;-70
2023/12/01 00:15:46;;;;;;;37.03;11.37;;;;;;;-1.61;100.00;99871.00;6072581;28;20030;-70
2023/12/01 00:18:42;;;;;;;40.23;12.37;;;;;;;-1.67;100.00;99870.50;6047692;28;20031;-70
2023/12/01 00:21:37;;;;;;;43.40;13.20;;;;;;;-1.69;100.00;99877.56;6071199;28;20481;-70
2023/12/01 00:24:33;;;;;;;40.77;13.53;;;;;;;-1.73;100.00;99876.91;6064346;28;20045;-71
2023/12/01 00:27:28;;;;;;;37.53;13.68;;;;;;;-1.72;100.00;99880.34;6055765;28;20160;-71
2023/12/01 00:30:28;;;;;;;43.63;11.67;;;;;;;-1.59;100.00;99882.13;6060531;28;20041;-70
2023/12/01 00:33:25;;;;;;;47.17;14.95;;;;;;;-1.59;100.00;99884.72;6068546;28;20053;-71
2023/12/01 00:36:20;;;;;;;40.97;13.88;;;;;;;-1.56;100.00;99884.56;6063474;28;20030;-70
2023/12/01 00:39:15;;;;;;;45.83;13.57;;;;;;;-1.57;100.00;99882.88;6067665;28;20044;-71
2023/12/01 00:42:13;;;;;;;47.63;13.13;;;;;;;-1.22;100.00;99894.59;6062806;28;20029;-70
2023/12/01 00:45:08;;;;;;;38.22;11.15;;;;;;;-1.31;100.00;99900.38;6060983;28;20388;-71
2023/12/01 00:48:04;;;;;;;43.40;14.10;;;;;;;-1.22;100.00;99902.41;6063509;28;20044;-71
2023/12/01 00:50:59;;;;;;;40.30;11.95;;;;;;;-1.47;100.00;99909.16;6065894;28;20033;-70
2023/12/01 00:53:55;;;;;;;40.80;11.80;;;;;;;-1.41;100.00;99913.97;6067131;28;20129;-70
2023/12/01 00:56:50;;;;;;;35.83;11.40;;;;;;;-1.35;100.00;99908.44;6063334;28;20030;-70
2023/12/01 00:59:45;;;;;;;37.43;11.47;;;;;;;-1.36;100.00;99904.16;6057773;28;20351;-71
2023/12/01 01:02:41;;;;;;;35.60;11.60;;;;;;;-1.34;100.00;99905.75;6072109;28;20033;-70
2023/12/01 01:05:36;;;;;;;40.87;11.50;;;;;;;-1.24;100.00;99904.25;6055121;28;20075;-71
2023/12/01 01:08:31;;;;;;;42.57;12.93;;;;;;;-1.43;100.00;99906.28;6060433;28;20028;-71
2023/12/01 01:11:26;;;;;;;33.70;11.40;;;;;;;-1.35;100.00;99911.88;6049313;28;20037;-71
2023/12/01 01:14:22;;;;;;;36.23;10.37;;;;;;;-1.47;100.00;99912.56;6055930;28;20046;-71
2023/12/01 01:17:17;;;;;;;34.17;10.57;;;;;;;-1.53;100.00;99910.38;6064182;28;20592;-71
2023/12/01 01:20:12;;;;;;;31.83;11.23;;;;;;;-1.42;100.00;99910.56;6052292;28;20049;-70
2023/12/01 01:23:08;;;;;;;33.00;10.17;;;;;;;-1.32;100.00;99909.09;6057681;28;20030;-70
2023/12/01 01:26:03;;;;;;;28.03;10.27;;;;;;;-1.47;100.00;99915.19;6049777;28;20048;-72
2023/12/01 01:28:59;;;;;;;37.38;11.57;;;;;;;-1.52;100.00;99926.81;6063573;28;20042;-70
2023/12/01 01:31:54;;;;;;;38.40;10.85;;;;;;;-1.49;100.00;99924.00;6066354;28;20041;-71
2023/12/01 01:34:50;;;;;;;40.03;12.17;;;;;;;-1.66;100.00;99925.00;6061297;28;20083;-71
2023/12/01 01:37:45;;;;;;;41.30;12.20;;;;;;;-1.77;100.00;99917.00;6062752;28;20029;-71
2023/12/01 01:40:41;;;;;;;36.40;10.73;;;;;;;-1.72;100.00;99920.16;6064934;28;20041;-70
2023/12/01 01:43:36;;;;;;;36.80;10.27;;;;;;;-1.63;100.00;99913.59;6056531;28;20046;-72
2023/12/01 01:46:32;;;;;;;36.25;11.38;;;;;;;-1.68;100.00;99926.84;6058937;28;20759;-71
2023/12/01 01:49:27;;;;;;;38.50;11.35;;;;;;;-1.61;100.00;99912.56;6063602;28;20079;-71
2023/12/01 01:52:22;;;;;;;35.53;11.07;;;;;;;-1.77;100.00;99917.00;6058907;28;20030;-71
2023/12/01 01:55:18;;;;;;;34.63;11.17;;;;;;;-1.74;100.00;99927.22;6067696;28;20770;-71
2023/12/01 01:58:13;;;;;;;38.05;12.00;;;;;;;-1.74;100.00;99927.22;6055569;28;20346;-70
2023/12/01 02:01:09;;;;;;;32.83;9.43;;;;;;;-1.57;100.00;99921.84;6053288;28;20042;-71
2023/12/01 02:04:09;;;;;;;32.60;10.88;;;;;;;-1.58;100.00;99935.78;6054893;28;20514;-70
2023/12/01 02:07:05;;;;;;;35.60;10.45;;;;;;;-1.63;100.00;99937.78;6053311;28;20072;-71
2023/12/01 02:10:00;;;;;;;30.20;9.67;;;;;;;-1.35;100.00;99945.66;6051424;28;20033;-71
2023/12/01 02:12:55;;;;;;;35.47;9.57;;;;;;;-1.47;100.00;99945.56;6083100;28;20040;-71
2023/12/01 02:15:52;;;;;;;26.20;8.90;;;;;;;-1.74;100.00;99949.75;6055836;28;20049;-70
2023/12/01 02:18:48;;;;;;;28.27;8.25;;;;;;;-1.74;100.00;99948.00;6044766;28;20037;-71
2023/12/01 02:21:47;;;;;;;30.52;9.70;;;;;;;-1.76;100.00;99939.44;6063259;28;20068;-71
2023/12/01 02:24:42;;;;;;;28.25;9.30;;;;;;;-1.64;100.00;99954.31;6061391;28;20108;-71
2023/12/01 02:27:37;;;;;;;26.77;8.87;;;;;;;-1.46;100.00;99957.63;6057265;28;20030;-71
2023/12/01 02:30:33;;;;;;;24.50;9.33;;;;;;;-1.61;100.00;99956.75;6053476;28;20100;-71
2023/12/01 02:33:28;;;;;;;27.52;8.60;;;;;;;-1.64;100.00;99956.09;6066786;28;20048;-71
2023/12/01 02:36:23;;;;;;;26.30;9.37;;;;;;;-1.70;100.00;99954.66;6058760;28;20037;-71
2023/12/01 02:39:19;;;;;;;28.30;8.70;;;;;;;-1.75;100.00;99955.84;6060070;28;20049;-71
2023/12/01 02:42:14;;;;;;;29.65;9.45;;;;;;;-1.70;100.00;99952.06;6063595;28;20492;-71
2023/12/01 02:45:10;;;;;;;35.30;9.30;;;;;;;-1.49;100.00;99953.44;6052855;28;20033;-71
2023/12/01 02:48:06;;;;;;;30.40;8.07;;;;;;;-1.50;100.00;99938.78;6053288;28;20065;-71
2023/12/01 02:51:01;;;;;;;27.48;8.98;;;;;;;-1.53;100.00;99944.16;6062652;28;20588;-71
2023/12/01 02:53:56;;;;;;;21.17;7.17;;;;;;;-1.56;100.00;99954.72;6057247;28;20116;-71
2023/12/01 02:56:52;;;;;;;27.47;9.53;;;;;;;-1.66;100.00;99952.75;6053570;28;20029;-71
2023/12/01 02:59:47;;;;;;;30.10;10.48;;;;;;;-1.78;100.00;99951.69;6055845;28;20049;-71
2023/12/01 03:02:43;;;;;;;27.30;8.63;;;;;;;-1.73;100.00;99941.00;6063554;28;20037;-71
2023/12/01 03:05:39;;;;;;;26.27;7.93;;;;;;;-1.74;100.00;99949.75;6060280;28;20030;-71
2023/12/01 03:08:34;;;;;;;24.73;8.60;;;;;;;-1.72;100.00;99948.75;6060226;28;20064;-72
2023/12/01 03:11:30;;;;;;;24.97;9.27;;;;;;;-1.77;100.00;99947.31;6066741;28;20398;-71
2023/12/01 03:14:25;;;;;;;24.77;7.33;;;;;;;-1.62;100.00;99962.03;6066324;28;20029;-71
2023/12/01 03:17:23;;;;;;;27.20;9.47;;;;;;;-1.67;100.00;99953.66;6061435;28;20044;-71
2023/12/01 03:20:18;;;;;;;27.77;8.77;;;;;;;-1.71;100.00;99955.59;6069899;28;20021;-71
2023/12/01 03:23:13;;;;;;;25.17;9.70;;;;;;;-1.62;100.00;99965.47;6068295;28;20037;-71
2023/12/01 03:26:09;;;;;;;26.70;8.17;;;;;;;-1.77;100.00;99961.16;6056648;28;20112;-71
2023/12/01 03:29:04;;;;;;;23.93;7.33;;;;;;;-1.76;100.00;99965.41;6057475;28;20372;-71
2023/12/01 03:31:59;;;;;;;32.93;8.47;;;;;;;-1.74;100.00;99968.78;6064362;28;20044;-71
2023/12/01 03:34:55;;;;;;;28.73;7.50;;;;;;;-1.66;100.00;99974.38;6071699;28;20029;-71
2023/12/01 03:37:56;;;;;;;25.02;7.60;;;;;;;-1.70;100.00;99970.25;6064032;28;20037;-71
2023/12/01 03:40:52;;;;;;;26.10;9.70;;;;;;;-1.81;100.00;99970.03;6069311;28;20028;-70
2023/12/01 03:43:48;;;;;;;28.73;8.77;;;;;;;-1.88;100.00;99968.72;6061704;28;20559;-71
2023/12/01 03:46:43;;;;;;;29.60;8.77;;;;;;;-1.80;100.00;99974.31;6060690;28;20064;-70
2023/12/01 03:49:39;;;;;;;24.38;9.30;;;;;;;-1.81;100.00;99972.63;6048755;28;20033;-70
2023/12/01 03:52:34;;;;;;;27.10;8.57;;;;;;;-1.72;100.00;99969.53;6067318;28;20090;-70
2023/12/01 03:55:29;;;;;;;32.33;9.07;;;;;;;-1.67;100.00;99975.28;6054777;28;20030;-71
2023/12/01 03:58:25;;;;;;;30.17;8.63;;;;;;;-1.90;100.00;99989.56;6056442;28;20504;-71
2023/12/01 04:01:21;;;;;;;25.08;9.70;;;;;;;-1.83;100.00;99975.34;6054672;28;20029;-71
2023/12/01 04:04:16;;;;;;;28.75;8.35;;;;;;;-1.90;100.00;99979.19;6068169;28;20551;-71
2023/12/01 04:07:11;;;;;;;28.20;8.77;;;;;;;-1.88;100.00;99984.31;6063339;28;20033;-70
2023/12/01 04:10:10;;;;;;;30.67;8.27;;;;;;;-1.70;100.00;99980.66;6069937;28;20149;-71
2023/12/01 04:13:08;;;;;;;27.13;7.20;;;;;;;-1.84;100.00;99978.00;6065231;28;20302;-71
2023/12/01 04:16:04;;;;;;;28.58;7.20;;;;;;;-1.94;100.00;99984.63;6062195;28;20038;-70
2023/12/01 04:18:59;;;;;;;21.75;8.02;;;;;;;-1.96;100.00;99989.91;6065296;28;20563;-71
2023/12/01 04:21:55;;;;;;;20.92;6.53;;;;;;;-2.01;100.00;99991.09;6069962;28;20534;-71
2023/12/01 04:24:51;;;;;;;20.03;6.83;;;;;;;-1.99;100.00;99991.84;6071830;28;20083;-71
2023/12/01 04:27:46;;;;;;;27.58;8.57;;;;;;;-1.82;100.00;99986.53;6064555;28;20275;-71
2023/12/01 04:30:42;;;;;;;22.67;7.63;;;;;;;-1.91;100.00;99987.91;6065029;28;20085;-71
2023/12/01 04:33:37;;;;;;;26.23;8.80;;;;;;;-1.93;100.00;99986.31;6059387;28;20088;-71
2023/12/01 04:36:33;;;;;;;27.93;8.87;;;;;;;-2.13;100.00;99986.56;6061434;28;20043;-72
2023/12/01 04:39:28;;;;;;;29.83;8.40;;;;;;;-2.18;100.00;99983.41;6063097;28;20034;-71
2023/12/01 04:42:23;;;;;;;28.97;7.97;;;;;;;-2.05;100.00;99999.97;6060130;28;20041;-71
2023/12/01 04:45:20;;;;;;;23.37;7.77;;;;;;;-2.11;100.00;100000.31;6057942;28;20044;-71
2023/12/01 04:48:15;;;;;;;26.20;8.45;;;;;;;-2.15;100.00;99998.81;6054090;28;20382;-71
2023/12/01 04:51:11;;;;;;;25.77;9.27;;;;;;;-2.17;100.00;99987.66;6056957;28;20052;-71
2023/12/01 04:54:06;;;;;;;31.03;9.17;;;;;;;-2.20;100.00;100003.44;6052864;28;20049;-71
2023/12/01 04:57:02;;;;;;;25.55;7.40;;;;;;;-2.15;100.00;99998.81;6057929;28;20120;-70
2023/12/01 04:59:57;;;;;;;27.40;8.80;;;;;;;-2.01;100.00;100010.09;6065098;28;20045;-71
2023/12/01 05:02:56;;;;;;;29.05;8.60;;;;;;;-1.93;100.00;100015.72;6058918;28;20496;-71
2023/12/01 05:05:51;;;;;;;27.60;8.35;;;;;;;-1.73;100.00;100017.22;6046313;28;20034;-71
2023/12/01 05:08:46;;;;;;;35.63;9.30;;;;;;;-1.85;100.00;100017.91;6055840;28;20486;-71
2023/12/01 05:11:45;;;;;;;30.07;9.63;;;;;;;-2.01;100.00;100024.88;6061317;28;20080;-71
2023/12/01 05:14:40;;;;;;;20.63;7.50;;;;;;;-2.08;100.00;100013.13;6065589;28;20116;-71
2023/12/01 05:17:36;;;;;;;29.83;8.13;;;;;;;-2.09;100.00;100020.06;6053400;28;20038;-71
2023/12/01 05:20:32;;;;;;;25.95;8.65;;;;;;;-1.93;100.00;100020.09;6064928;28;20037;-71
2023/12/01 05:23:27;;;;;;;31.50;9.52;;;;;;;-2.08;100.00;100021.75;6060359;28;20036;-71
2023/12/01 05:26:22;;;;;;;29.35;8.30;;;;;;;-2.17;100.00;100021.41;6055569;28;20064;-71
2023/12/01 05:29:18;;;;;;;27.80;8.80;;;;;;;-2.24;100.00;100025.28;6062413;28;20088;-71
2023/12/01 05:32:13;;;;;;;25.33;7.90;;;;;;;-2.11;100.00;100039.25;6066698;28;20032;-71
2023/12/01 05:35:11;;;;;;;34.13;9.70;;;;;;;-2.18;100.00;100036.19;6057903;28;20026;-71
2023/12/01 05:38:07;;;;;;;31.77;9.32;;;;;;;-2.19;100.00;100038.84;6075226;28;20477;-71
2023/12/01 05:41:02;;;;;;;33.42;8.25;;;;;;;-2.10;100.00;100038.34;6052921;28;20069;-71
2023/12/01 05:43:57;;;;;;;31.13;9.90;;;;;;;-1.78;100.00;100045.22;6063625;28;20083;-70
2023/12/01 05:46:53;;;;;;;35.70;10.02;;;;;;;-1.88;100.00;100034.50;6060960;28;20109;-71
2023/12/01 05:49:49;;;;;;;28.07;9.10;;;;;;;-2.06;100.00;100037.25;6062693;28;20025;-71
2023/12/01 05:52:45;;;;;;;37.22;10.68;;;;;;;-2.00;100.00;100029.97;6060274;28;20041;-71
2023/12/01 05:55:40;;;;;;;26.80;8.70;;;;;;;-2.07;100.00;100027.78;6057271;28;20045;-71
2023/12/01 05:58:35;;;;;;;25.77;7.67;;;;;;;-1.89;100.00;100037.16;6051254;28;20128;-71
2023/12/01 06:01:31;;;;;;;31.33;8.33;;;;;;;-1.95;100.00;100033.16;6060481;28;20034;-70
2023/12/01 06:04:26;;;;;;;25.53;8.27;;;;;;;-2.01;100.00;100032.66;6057758;28;20508;-71
2023/12/01 06:07:21;;;;;;;23.20;6.73;;;;;;;-1.99;100.00;100033.41;6050381;28;20038;-71
2023/12/01 06:10:17;;;;;;;26.93;8.00;;;;;;;-2.04;100.00;100027.63;6065304;28;20021;-71
2023/12/01 06:13:13;;;;;;;22.08;7.10;;;;;;;-1.99;100.00;100036.00;6051541;28;20463;-71
2023/12/01 06:16:08;;;;;;;27.48;7.03;;;;;;;-1.91;100.00;100034.66;6049615;28;20030;-71
2023/12/01 06:19:04;;;;;;;25.08;7.07;;;;;;;-1.95;100.00;100040.94;6068773;28;20026;-71
2023/12/01 06:22:00;;;;;;;25.17;9.05;;;;;;;-2.29;100.00;100032.47;6061552;28;20029;-72
2023/12/01 06:24:55;;;;;;;20.63;6.07;;;;;;;-2.18;100.00;100045.72;6065332;28;20150;-71
2023/12/01 06:27:50;;;;;;;17.90;5.83;;;;;;;-2.05;100.00;100057.09;6052338;28;20037;-71
2023/12/01 06:30:46;;;;;;;17.13;6.73;;;;;;;-2.16;100.00;100062.88;6064049;28;20025;-71
2023/12/01 06:33:41;;;;;;;21.03;7.70;;;;;;;-2.26;100.00;100068.66;6063046;28;20436;-72
2023/12/01 06:36:36;;;;;;;24.27;6.90;;;;;;;-2.19;100.00;100060.44;6055864;28;20029;-72
2023/12/01 06:39:31;;;;;;;19.87;7.20;;;;;;;-2.24;100.00;100057.28;6067966;28;20025;-72
2023/12/01 06:42:27;;;;;;;18.87;6.60;;;;;;;-2.13;100.00;100064.47;6063510;28;20103;-72
2023/12/01 06:45:26;;;;;;;24.88;7.93;;;;;;;-2.14;100.00;100055.84;6065161;28;20026;-71
2023/12/01 06:48:21;;;;;;;21.77;7.20;;;;;;;-2.09;100.00;100058.22;6062987;28;20042;-71
2023/12/01 06:51:16;;;;;;;21.63;7.20;;;;;;;-2.05;100.00;100070.09;6054702;28;20103;-71
2023/12/01 06:54:12;;;;;;;22.60;6.83;;;;;;;-1.92;100.00;100076.28;6064290;28;20042;-72
2023/12/01 06:57:07;;;;;;;23.50;6.63;;;;;;;-1.79;100.00;100085.09;6056497;28;20047;-72
2023/12/01 07:00:07;;;;;;;18.80;6.80;;;;;;;-1.88;100.00;100085.63;6066445;28;20055;-71
2023/12/01 07:03:04;;;;;;;16.88;6.05;;;;;;;-1.99;100.00;100094.00;6066500;28;20268;-72
2023/12/01 07:05:59;;;;;;;18.17;6.50;;;;;;;-2.00;100.00;100096.66;6065464;28;20033;-72
2023/12/01 07:08:54;;;;;;;21.33;6.27;;;;;;;-1.99;100.00;100098.34;6062431;28;20029;-72
2023/12/01 07:11:50;;;;;;;26.47;7.80;;;;;;;-2.17;100.00;100115.72;6068629;28;20120;-72
2023/12/01 07:14:46;;;;;;;15.50;4.77;;;;;;;-2.29;100.00;100115.53;6063701;28;20029;-71
2023/12/01 07:17:41;;;;;;;24.23;6.32;;;;;;;-2.02;100.00;100119.28;6054264;28;20040;-71
2023/12/01 07:20:36;;;;;;;22.00;6.70;;;;;;;-1.91;100.00;100123.00;6063745;28;20017;-71
2023/12/01 07:23:34;;;;;;;18.33;7.17;;;;;;;-1.77;100.00;100119.66;6063297;28;20303;-72
2023/12/01 07:26:33;;;;;;;20.45;6.60;;;;;;;-1.85;100.00;100127.00;6052421;28;20189;-71
2023/12/01 07:29:28;;;;;;;23.27;9.20;;;;;;;-1.79;100.00;100139.66;6057932;28;20025;-70
2023/12/01 07:32:23;;;;;;;19.75;6.72;;;;;;;-1.95;100.00;100136.19;6064146;28;20535;-71
2023/12/01 07:35:19;;;;;;;18.87;6.43;;;;;;;-2.04;100.00;100136.72;6059990;28;20081;-72
2023/12/01 07:38:16;;;;;;;19.83;6.30;;;;;;;-2.03;100.00;100138.38;6050426;28;20489;-72
2023/12/01 07:41:12;;;;;;;27.17;7.97;;;;;;;-2.29;100.00;100136.31;6053201;28;20384;-71
2023/12/01 07:44:08;;;;;;;19.23;5.85;;;;;;;-1.95;100.00;100159.56;6055282;28;20030;-71
2023/12/01 07:47:07;;;;;;;18.77;6.57;;;;;;;-1.93;100.00;100142.19;6060520;28;20042;-71
2023/12/01 07:50:04;;;;;;;18.17;6.13;;;;;;;-1.87;100.00;100154.81;6066412;28;20378;-72
2023/12/01 07:52:59;;;;;;;17.20;6.43;;;;;;;-2.10;100.00;100158.66;6059048;28;20116;-73
2023/12/01 07:55:55;;;;;;;17.50;6.10;;;;;;;-1.88;100.00;100158.34;6061585;28;20034;-72
2023/12/01 07:58:50;;;;;;;20.57;6.83;;;;;;;-1.93;100.00;100166.38;6059914;28;20022;-71
2023/12/01 08:01:45;;;;;;;22.13;6.67;;;;;;;-1.88;100.00;100172.19;6069322;28;20485;-71
2023/12/01 08:04:41;;;;;;;18.57;6.30;;;;;;;-1.98;100.00;100167.53;6061226;28;20494;-72
2023/12/01 08:07:36;;;;;;;21.85;7.70;;;;;;;-2.01;100.00;100178.09;6063370;28;20042;-71
2023/12/01 08:10:32;;;;;;;20.10;5.93;;;;;;;-2.02;100.00;100181.59;6068188;28;20037;-72
2023/12/01 08:13:27;;;;;;;15.98;4.75;;;;;;;-1.91;100.00;100184.50;6057469;28;20038;-71
2023/12/01 08:16:22;;;;;;;19.20;6.33;;;;;;;-1.83;100.00;100190.13;6065290;28;20121;-71
2023/12/01 08:19:18;;;;;;;14.15;4.80;;;;;;;-1.64;100.00;100180.41;6061056;28;20036;-72
2023/12/01 08:22:13;;;;;;;19.93;5.87;;;;;;;-1.85;100.00;100189.38;6063884;28;20073;-72
2023/12/01 08:25:09;;;;;;;17.90;5.78;;;;;;;-1.65;100.00;100196.91;6049890;28;20388;-72
2023/12/01 08:28:05;;;;;;;20.40;6.25;;;;;;;-1.78;100.00;100197.66;6060945;28;20045;-71
2023/12/01 08:31:00;;;;;;;15.70;5.53;;;;;;;-1.92;100.00;100198.38;6061670;28;20519;-71
2023/12/01 08:33:56;;;;;;;17.47;5.43;;;;;;;-1.73;100.00;100204.28;6055864;28;20057;-72
2023/12/01 08:36:51;;;;;;;17.30;5.40;;;;;;;-1.59;100.00;100201.78;6058983;28;20069;-72
2023/12/01 08:39:46;;;;;;;14.07;5.70;;;;;;;-1.85;100.00;100199.75;6063159;28;20069;-71
2023/12/01 08:42:42;;;;;;;14.25;5.50;;;;;;;-1.90;100.00;100212.97;6053704;28;20040;-73
2023/12/01 08:45:37;;;;;;;17.33;5.53;;;;;;;-1.60;100.00;100210.50;6056371;28;20030;-71
2023/12/01 08:48:32;;;;;;;17.90;6.20;;;;;;;-1.60;100.00;100218.31;6057811;28;20038;-71
2023/12/01 08:51:28;;;;;;;16.93;5.80;;;;;;;-1.60;100.00;100210.50;6058102;28;20038;-72
2023/12/01 08:54:23;;;;;;;18.53;6.20;;;;;;;-1.61;100.00;100206.25;6059547;28;20096;-72
2023/12/01 08:57:18;;;;;;;16.10;5.90;;;;;;;-1.64;100.00;100219.41;6061191;28;20030;-72
2023/12/01 09:00:20;;;;;;;18.87;6.77;;;;;;;-1.51;100.00;100223.03;6064891;28;20048;-73
2023/12/01 09:03:15;;;;;;;;;;;;;;;-1.56;100.00;100227.63;6062148;28;20033;-72
2023/12/01 09:06:11;;;;;;;14.15;5.50;;;;;;;-1.61;100.00;100219.25;6063726;28;20360;-72
2023/12/01 09:09:06;;;;;;;17.57;5.27;;;;;;;-1.78;100.00;100211.50;6057942;28;20029;-73
2023/12/01 09:12:01;;;;;;;12.95;5.75;;;;;;;-1.59;100.00;100221.75;6063410;28;20037;-73
2023/12/01 09:14:57;;;;;;;14.77;5.47;;;;;;;-1.62;100.00;100233.16;6069045;28;20026;-73
2023/12/01 09:17:52;;;;;;;18.97;6.53;;;;;;;-1.72;100.00;100221.56;6057928;28;20280;-72
2023/12/01 09:20:47;;;;;;;17.67;5.53;;;;;;;-1.58;100.00;100221.69;6060311;28;20018;-73
2023/12/01 09:23:44;;;;;;;13.73;4.90;;;;;;;-1.31;100.00;100225.41;6065146;28;20032;-73
2023/12/01 09:26:40;;;;;;;20.92;5.63;;;;;;;-1.61;100.00;100219.25;6068417;28;20496;-73
2023/12/01 09:29:35;;;;;;;16.98;5.93;;;;;;;-1.50;100.00;100222.09;6057740;28;20034;-73
2023/12/01 09:32:30;;;;;;;14.53;5.60;;;;;;;-1.53;100.00;100226.63;6060842;28;20038;-74
2023/12/01 09:35:26;;;;;;;12.73;4.53;;;;;;;-1.58;100.00;100237.28;6056732;28;20042;-74
2023/12/01 09:38:21;;;;;;;15.45;6.63;;;;;;;-1.61;100.00;100234.84;6065893;28;20026;-73
2023/12/01 09:41:16;;;;;;;15.90;5.90;;;;;;;-1.51;100.00;100238.63;6051705;28;20117;-74
2023/12/01 09:44:12;;;;;;;17.20;6.50;;;;;;;-1.35;100.00;100231.66;6064338;28;20033;-74
2023/12/01 09:47:10;;;;;;;19.57;6.30;;;;;;;-1.43;100.00;100238.19;6051948;28;20035;-75
2023/12/01 09:50:08;;;;;;;13.63;5.53;;;;;;;-1.69;100.00;100237.00;6078639;28;20017;-74
2023/12/01 09:53:04;;;;;;;16.70;5.95;;;;;;;-1.41;100.00;100239.78;6063495;28;20125;-73
2023/12/01 09:56:00;;;;;;;12.02;4.72;;;;;;;-1.31;100.00;100228.00;6063326;28;20402;-74
2023/12/01 09:58:56;;;;;;;10.38;5.75;;;;;;;-1.17;100.00;100218.59;6060704;28;20041;-74
2023/12/01 10:01:52;;;;;;;13.90;5.57;;;;;;;-1.63;100.00;100233.25;6053227;28;20029;-74
2023/12/01 10:04:48;;;;;;;16.73;5.53;;;;;;;-1.54;100.00;100232.72;6051729;28;20407;-73
2023/12/01 10:07:43;;;;;;;13.32;5.45;;;;;;;-1.37;100.00;100222.28;6049734;28;20035;-72
2023/12/01 10:10:38;;;;;;;12.67;5.00;;;;;;;-0.99;100.00;100233.19;6065126;28;20114;-72
2023/12/01 10:13:40;;;;;;;14.20;5.13;;;;;;;-0.87;100.00;100238.53;6060000;28;20284;-72
2023/12/01 10:16:36;;;;;;;11.52;5.20;;;;;;;-0.97;100.00;100236.53;6060837;28;20034;-72
2023/12/01 10:19:33;;;;;;;11.55;4.25;;;;;;;-0.95;100.00;100232.09;6054453;28;20465;-72
2023/12/01 10:22:28;;;;;;;14.75;4.50;;;;;;;-1.02;100.00;100231.59;6064804;28;20040;-71
2023/12/01 10:25:23;;;;;;;11.60;4.23;;;;;;;-1.07;100.00;100230.16;6062867;28;20436;-73
2023/12/01 10:28:20;;;;;;;11.13;4.35;;;;;;;-1.13;100.00;100220.09;6079996;28;20060;-76
2023/12/01 10:31:15;;;;;;;12.45;3.85;;;;;;;-1.06;100.00;100222.25;6049173;28;20026;-74
2023/12/01 10:34:11;;;;;;;12.48;4.35;;;;;;;-1.04;100.00;100224.78;6066620;28;20061;-73
2023/12/01 10:37:06;;;;;;;9.43;3.47;;;;;;;-1.16;100.00;100230.66;6052369;28;20058;-74
2023/12/01 10:40:05;;;;;;;10.93;3.88;;;;;;;-1.18;100.00;100212.53;6065322;28;20029;-75
2023/12/01 10:43:01;;;;;;;8.73;3.95;;;;;;;-0.89;100.00;100229.97;6054386;28;20040;-74
2023/12/01 10:46:02;;;;;;;11.13;4.05;;;;;;;-1.24;100.00;100229.31;6053717;28;20038;-76
2023/12/01 10:48:58;;;;;;;;;;;;;;;-1.31;100.00;100233.19;6050258;28;20482;-76
2023/12/01 10:51:54;;;;;;;11.65;3.88;;;;;;;-1.18;100.00;100220.34;6089356;28;19924;-75
2023/12/01 10:54:49;;;;;;;9.23;3.78;;;;;;;-1.34;100.00;100225.56;6057979;28;20037;-75
2023/12/01 10:57:46;;;;;;;9.87;4.10;;;;;;;-1.35;100.00;100216.06;6053382;28;20091;-77
2023/12/01 11:00:42;;;;;;;10.40;4.47;;;;;;;-1.08;100.00;100218.91;6041608;28;20042;-77
2023/12/01 11:03:40;;;;;;;11.70;3.83;;;;;;;-0.98;100.00;100222.66;6047951;28;20072;-77
2023/12/01 11:06:55;;;;;;;11.07;3.83;;;;;;;-0.84;100.00;100222.75;6060946;28;20033;-77
2023/12/01 11:10:02;;;;;;;12.98;4.47;;;;;;;-1.20;100.00;100219.59;6063224;28;20080;-77
2023/12/01 11:13:22;;;;;;;11.18;4.15;;;;;;;-0.99;100.00;100222.75;6055881;28;20516;-78
2023/12/01 11:16:17;;;;;;;13.32;4.47;;;;;;;-0.91;100.00;100228.38;6058362;28;20103;-80
2023/12/01 11:19:18;;;;;;;10.60;3.90;;;;;;;-1.12;100.00;100208.78;6060277;28;20037;-76
2023/12/01 11:22:29;;;;;;;9.95;3.88;;;;;;;-1.37;100.00;100201.47;6066301;28;20752;-77
2023/12/01 11:25:41;;;;;;;9.45;3.67;;;;;;;-1.06;100.00;100205.84;6078191;28;20037;-79
2023/12/01 11:29:17;;;;;;;7.68;3.13;;;;;;;-1.08;100.00;100208.50;6087656;28;20061;-79
2023/12/01 11:32:13;;;;;;;9.02;4.40;;;;;;;-1.28;100.00;100201.78;6062842;28;20061;-78
2023/12/01 11:35:14;;;;;;;12.63;3.77;;;;;;;-1.84;100.00;100180.63;6098289;28;20121;-79
2023/12/01 11:38:12;;;;;;;8.13;3.83;;;;;;;-1.89;100.00;100209.47;6066278;28;20032;-79
2023/12/01 11:41:30;;;;;;;9.93;4.28;;;;;;;-1.62;100.00;100201.97;6058067;28;20034;-77
2023/12/01 11:44:37;;;;;;;12.07;4.05;;;;;;;-1.65;100.00;100212.50;6061887;28;20469;-78
2023/12/01 11:47:32;;;;;;;17.20;6.25;;;;;;;-1.76;100.00;100214.00;6060294;28;20440;-78
2023/12/01 11:50:28;;;;;;;13.40;4.57;;;;;;;-1.34;100.00;100207.34;6053131;28;20065;-80
2023/12/01 11:53:23;;;;;;;16.17;5.37;;;;;;;-1.74;100.00;100197.44;6066678;28;20168;-79
2023/12/01 11:56:18;;;;;;;10.33;3.93;;;;;;;-1.38;100.00;100202.38;6073830;28;20030;-80
2023/12/01 11:59:14;;;;;;;11.95;3.70;;;;;;;-1.37;100.00;100214.47;6055110;28;20285;-79
2023/12/01 12:02:09;;;;;;;14.90;3.80;;;;;;;-1.17;100.00;100210.78;6056583;28;20533;-78
2023/12/01 12:05:05;;;;;;;10.38;3.88;;;;;;;-1.25;100.00;100206.84;6055039;28;20017;-78
2023/12/01 12:08:01;;;;;;;11.57;4.45;;;;;;;-1.27;100.00;100211.28;6069324;28;20025;-80
2023/12/01 12:10:56;;;;;;;8.37;3.33;;;;;;;-1.23;100.00;100212.81;6061818;28;20041;-79
2023/12/01 12:13:56;;;;;;;9.75;3.85;;;;;;;-1.48;100.00;100217.66;6042795;28;20413;-79
2023/12/01 12:16:52;;;;;;;8.55;3.58;;;;;;;-1.59;100.00;100217.41;6054679;28;20430;-79
2023/12/01 12:19:47;;;;;;;11.63;3.67;;;;;;;-1.43;100.00;100207.00;6058113;28;20037;-78
2023/12/01 12:22:43;;;;;;;7.75;3.20;;;;;;;-1.17;100.00;100214.25;6034387;28;20049;-80
2023/12/01 12:25:38;;;;;;;7.50;3.08;;;;;;;-1.47;100.00;100195.91;6063550;28;20087;-78
2023/12/01 12:28:34;;;;;;;11.93;3.00;;;;;;;-1.11;100.00;100210.47;6066879;28;20033;-79
2023/12/01 12:31:35;;;;;;;10.67;3.30;;;;;;;-1.33;100.00;100214.22;6071706;28;20525;-78
2023/12/01 12:34:30;;;;;;;7.20;3.00;;;;;;;-1.54;100.00;100204.13;6052255;28;20045;-79
2023/12/01 12:37:26;;;;;;;7.20;3.27;;;;;;;-1.21;100.00;100200.56;6061043;28;20034;-79
2023/12/01 12:40:21;;;;;;;9.23;3.25;;;;;;;-1.18;100.00;100202.16;6055835;28;20289;-78
2023/12/01 12:43:20;;;;;;;7.73;3.20;;;;;;;-1.38;100.00;100210.19;6065414;28;20041;-79
2023/12/01 12:46:15;;;;;;;8.88;2.80;;;;;;;-1.76;100.00;100209.66;6068638;28;20031;-79
2023/12/01 12:49:10;;;;;;;9.10;3.23;;;;;;;-1.87;100.00;100218.00;6060873;28;20029;-78
2023/12/01 12:52:06;;;;;;;7.15;3.00;;;;;;;-1.44;100.00;100221.75;6068817;28;20021;-78
2023/12/01 12:55:01;;;;;;;9.80;4.00;;;;;;;-1.75;100.00;100213.94;6065496;28;20033;-78
2023/12/01 12:57:56;;;;;;;7.23;2.97;;;;;;;-1.25;100.00;100206.84;6081193;28;20366;-78
2023/12/01 13:00:52;;;;;;;11.33;3.50;;;;;;;-1.21;100.00;100218.75;6064741;28;20505;-78
2023/12/01 13:03:47;;;;;;;6.90;3.00;;;;;;;-1.44;100.00;100211.34;6063742;28;20483;-78
2023/12/01 13:06:42;;;;;;;5.67;2.23;;;;;;;-1.26;100.00;100220.78;6061350;28;20290;-78
2023/12/01 13:09:38;;;;;;;6.10;2.50;;;;;;;-1.37;100.00;100219.69;6069256;28;20033;-78
2023/12/01 13:12:33;;;;;;;8.87;3.77;;;;;;;-1.62;100.00;100211.50;6062102;28;20064;-79
2023/12/01 13:15:29;;;;;;;10.05;3.72;;;;;;;-1.41;100.00;100206.00;6066714;28;20272;-78
2023/12/01 13:18:24;;;;;;;7.80;3.40;;;;;;;-1.46;100.00;100213.22;6064351;28;20555;-77
2023/12/01 13:21:20;;;;;;;8.63;3.95;;;;;;;-1.49;100.00;100202.97;6056567;28;20033;-78
2023/12/01 13:24:15;;;;;;;11.33;4.40;;;;;;;-1.53;100.00;100205.84;6057347;28;20054;-79